createdAt,value
2018-12-11T00:00:34.285Z,19.90
2018-12-11T00:03:02.990Z,19.80
2018-12-11T00:05:31.384Z,19.80
2018-12-11T00:07:59.748Z,19.80
2018-12-11T00:10:28.143Z,19.70
2018-12-11T00:12:56.529Z,19.70
2018-12-11T00:15:24.871Z,19.70
2018-12-11T00:17:53.370Z,19.70
2018-12-11T00:20:21.768Z,19.70
2018-12-11T00:22:50.119Z,19.60
2018-12-11T00:25:18.482Z,19.60
2018-12-11T00:27:46.835Z,19.60
2018-12-11T00:30:15.215Z,19.50
2018-12-11T00:32:43.604Z,19.50
2018-12-11T00:35:11.951Z,19.50
2018-12-11T00:37:40.308Z,19.50
2018-12-11T00:40:08.661Z,19.50
2018-12-11T00:42:37.043Z,19.50
2018-12-11T00:45:05.508Z,19.40
2018-12-11T00:47:33.877Z,19.40
2018-12-11T00:50:02.231Z,19.40
2018-12-11T00:52:30.609Z,19.40
2018-12-11T00:54:59.063Z,19.30
2018-12-11T00:57:28.037Z,19.30
2018-12-11T00:59:56.376Z,19.30
2018-12-11T01:02:24.750Z,19.30
2018-12-11T01:04:53.121Z,19.30
2018-12-11T01:07:22.019Z,19.20
2018-12-11T01:09:50.398Z,19.20
2018-12-11T01:12:18.767Z,19.20
2018-12-11T01:14:47.147Z,19.20
2018-12-11T01:20:46.435Z,19.10
2018-12-11T01:23:14.783Z,19.10
2018-12-11T01:25:43.142Z,19.10
2018-12-11T01:28:11.521Z,19.10
2018-12-11T01:30:39.972Z,19.10
2018-12-11T01:33:08.750Z,19.00
2018-12-11T01:35:37.131Z,19.00
2018-12-11T01:38:05.626Z,19.00
2018-12-11T01:40:34.020Z,19.00
2018-12-11T01:43:02.386Z,19.00
2018-12-11T01:45:30.755Z,18.90
2018-12-11T01:47:59.159Z,19.00
2018-12-11T01:50:27.562Z,18.90
2018-12-11T01:52:55.965Z,18.90
2018-12-11T01:55:24.327Z,18.90
2018-12-11T01:57:52.694Z,18.90
2018-12-11T02:00:23.126Z,18.90
2018-12-11T02:02:51.479Z,18.90
2018-12-11T02:05:19.833Z,18.80
2018-12-11T02:07:48.195Z,18.80
2018-12-11T02:10:16.736Z,18.80
2018-12-11T02:12:45.138Z,18.80
2018-12-11T02:15:13.512Z,18.80
2018-12-11T02:17:41.886Z,18.80
2018-12-11T02:20:10.267Z,18.70
2018-12-11T02:22:38.698Z,18.70
2018-12-11T02:25:07.155Z,18.70
2018-12-11T02:27:35.531Z,18.70
2018-12-11T02:30:04.606Z,18.70
2018-12-11T02:32:32.997Z,18.70
2018-12-11T02:35:01.345Z,18.70
2018-12-11T02:37:29.731Z,18.60
2018-12-11T02:39:58.139Z,18.60
2018-12-11T02:42:26.517Z,18.60
2018-12-11T02:44:54.906Z,18.60
2018-12-11T02:47:23.262Z,18.60
2018-12-11T02:49:51.662Z,18.60
2018-12-11T02:52:20.016Z,18.50
2018-12-11T02:54:48.402Z,18.50
2018-12-11T02:57:16.754Z,18.50
2018-12-11T02:59:45.158Z,18.50
2018-12-11T03:02:13.550Z,18.50
2018-12-11T03:04:41.916Z,18.50
2018-12-11T03:07:10.266Z,18.50
2018-12-11T03:09:38.638Z,18.40
2018-12-11T03:12:06.988Z,18.40
2018-12-11T03:14:35.366Z,18.40
2018-12-11T03:17:03.727Z,18.40
2018-12-11T03:19:32.077Z,18.40
2018-12-11T03:25:31.863Z,18.40
2018-12-11T03:28:00.267Z,18.40
2018-12-11T03:30:28.745Z,18.40
2018-12-11T03:33:02.750Z,18.30
2018-12-11T03:35:31.148Z,18.30
2018-12-11T03:37:59.509Z,18.30
2018-12-11T03:40:27.878Z,18.30
2018-12-11T03:42:56.239Z,18.30
2018-12-11T03:45:24.598Z,18.30
2018-12-11T03:47:52.987Z,18.30
2018-12-11T03:50:21.339Z,18.30
2018-12-11T03:52:49.754Z,18.30
2018-12-11T03:55:18.111Z,18.20
2018-12-11T03:57:46.486Z,18.20
2018-12-11T04:00:14.854Z,18.30
2018-12-11T04:02:43.248Z,18.20
2018-12-11T04:05:11.635Z,18.20
2018-12-11T04:07:40.000Z,18.20
2018-12-11T04:10:09.018Z,18.20
2018-12-11T04:12:37.390Z,18.20
2018-12-11T04:15:06.110Z,18.20
2018-12-11T04:17:34.560Z,18.10
2018-12-11T04:20:03.131Z,18.10
2018-12-11T04:22:31.494Z,18.10
2018-12-11T04:24:59.849Z,18.10
2018-12-11T04:27:28.231Z,18.10
2018-12-11T04:29:56.602Z,18.10
2018-12-11T04:32:24.956Z,18.10
2018-12-11T04:34:53.337Z,18.10
2018-12-11T04:37:21.699Z,18.00
2018-12-11T04:39:50.080Z,18.00
2018-12-11T04:42:18.471Z,18.00
2018-12-11T04:44:46.839Z,18.00
2018-12-11T04:47:15.266Z,18.00
2018-12-11T04:49:43.669Z,18.00
2018-12-11T04:52:12.032Z,18.00
2018-12-11T04:54:40.399Z,18.00
2018-12-11T04:57:08.814Z,18.00
2018-12-11T04:59:37.180Z,17.90
2018-12-11T05:02:05.563Z,17.90
2018-12-11T05:04:33.923Z,17.90
2018-12-11T05:07:02.316Z,17.90
2018-12-11T05:09:30.708Z,17.90
2018-12-11T05:11:59.069Z,17.90
2018-12-11T05:14:27.462Z,17.90
2018-12-11T05:16:55.881Z,17.90
2018-12-11T05:19:24.254Z,17.90
2018-12-11T05:21:52.646Z,17.80
2018-12-11T05:24:21.023Z,17.80
2018-12-11T05:26:49.409Z,17.80
2018-12-11T05:29:17.791Z,17.80
2018-12-11T05:31:46.147Z,17.80
2018-12-11T05:34:14.496Z,17.80
2018-12-11T05:36:42.850Z,17.80
2018-12-11T05:39:11.257Z,17.80
2018-12-11T05:41:39.622Z,17.80
2018-12-11T05:44:07.984Z,17.80
2018-12-11T05:46:36.450Z,17.80
2018-12-11T05:49:04.825Z,17.90
2018-12-11T05:51:33.176Z,17.90
2018-12-11T05:54:01.539Z,18.00
2018-12-11T05:56:29.898Z,18.00
2018-12-11T05:58:58.269Z,18.00
2018-12-11T06:01:26.621Z,18.10
2018-12-11T06:03:54.992Z,18.10
2018-12-11T06:06:23.352Z,18.20
2018-12-11T06:08:51.712Z,18.20
2018-12-11T06:11:20.064Z,18.20
2018-12-11T06:13:48.476Z,18.20
2018-12-11T06:16:17.120Z,18.20
2018-12-11T06:18:45.546Z,18.20
2018-12-11T06:21:13.917Z,18.20
2018-12-11T06:23:42.256Z,18.20
2018-12-11T06:26:10.623Z,18.20
2018-12-11T06:28:38.975Z,18.20
2018-12-11T06:31:07.343Z,18.20
2018-12-11T06:33:35.715Z,18.20
2018-12-11T06:36:04.087Z,18.20
2018-12-11T06:38:32.444Z,18.20
2018-12-11T06:41:00.800Z,18.20
2018-12-11T06:43:31.782Z,18.20
2018-12-11T06:46:00.637Z,18.20
2018-12-11T06:48:28.983Z,18.20
2018-12-11T06:50:57.329Z,18.20
2018-12-11T06:53:25.690Z,18.10
2018-12-11T06:55:54.051Z,18.10
2018-12-11T06:58:22.406Z,18.10
2018-12-11T07:00:50.823Z,18.10
2018-12-11T07:03:19.163Z,18.10
2018-12-11T07:05:47.539Z,18.10
2018-12-11T07:08:17.792Z,18.10
2018-12-11T07:10:46.175Z,18.10
2018-12-11T07:13:14.532Z,18.00
2018-12-11T07:15:42.877Z,18.00
2018-12-11T07:18:11.551Z,18.00
2018-12-11T07:20:39.946Z,18.00
2018-12-11T07:23:08.318Z,18.00
2018-12-11T07:25:36.663Z,18.00
2018-12-11T07:28:05.643Z,18.00
2018-12-11T07:30:34.009Z,18.00
2018-12-11T07:33:02.460Z,18.00
2018-12-11T07:35:30.821Z,17.90
2018-12-11T07:37:59.182Z,17.90
2018-12-11T07:40:27.575Z,17.90
2018-12-11T07:42:55.934Z,17.90
2018-12-11T07:45:24.299Z,17.90
2018-12-11T07:47:52.655Z,17.90
2018-12-11T07:50:20.991Z,17.80
2018-12-11T07:52:49.336Z,17.90
2018-12-11T07:55:17.699Z,17.80
2018-12-11T07:57:46.047Z,17.80
2018-12-11T08:00:14.424Z,17.80
2018-12-11T08:02:42.789Z,17.80
2018-12-11T08:05:11.191Z,17.80
2018-12-11T08:07:39.540Z,17.70
2018-12-11T08:10:07.968Z,17.80
2018-12-11T08:12:36.331Z,17.70
2018-12-11T08:15:05.495Z,17.70
2018-12-11T08:17:33.878Z,17.70
2018-12-11T08:20:02.256Z,17.70
2018-12-11T08:22:30.651Z,17.70
2018-12-11T08:24:59.018Z,17.70
2018-12-11T08:27:27.402Z,17.70
2018-12-11T08:29:55.749Z,17.60
2018-12-11T08:32:24.119Z,17.70
2018-12-11T08:34:52.637Z,17.70
2018-12-11T08:37:21.703Z,17.60
2018-12-11T08:39:50.059Z,17.60
2018-12-11T08:42:18.418Z,17.60
2018-12-11T08:44:51.107Z,17.60
2018-12-11T08:47:17.169Z,17.60
2018-12-11T08:49:45.724Z,17.60
2018-12-11T08:52:14.213Z,17.60
2018-12-11T08:54:43.042Z,17.60
2018-12-11T08:57:11.417Z,17.70
2018-12-11T08:59:39.775Z,17.70
2018-12-11T09:02:08.135Z,17.70
2018-12-11T09:04:36.511Z,17.70
2018-12-11T09:07:04.858Z,17.70
2018-12-11T09:09:33.214Z,17.70
2018-12-11T09:12:01.599Z,17.60
2018-12-11T09:14:30.020Z,17.60
2018-12-11T09:16:58.382Z,17.60
2018-12-11T09:19:26.770Z,17.60
2018-12-11T09:21:55.134Z,17.70
2018-12-11T09:24:23.490Z,17.60
2018-12-11T09:26:51.850Z,17.70
2018-12-11T09:29:20.217Z,17.60
2018-12-11T09:31:48.580Z,17.60
2018-12-11T09:34:18.243Z,17.60
2018-12-11T09:36:46.817Z,17.60
2018-12-11T09:39:15.195Z,17.60
2018-12-11T09:41:43.555Z,17.60
2018-12-11T09:44:11.907Z,17.50
2018-12-11T09:46:40.288Z,17.50
2018-12-11T09:49:08.651Z,17.50
2018-12-11T09:51:37.026Z,17.60
2018-12-11T09:54:05.393Z,17.60
2018-12-11T09:56:33.748Z,17.60
2018-12-11T09:59:02.121Z,17.60
2018-12-11T10:01:30.472Z,17.60
2018-12-11T10:03:58.851Z,17.70
2018-12-11T10:06:27.243Z,17.70
2018-12-11T10:08:59.806Z,17.70
2018-12-11T10:11:28.176Z,17.80
2018-12-11T10:13:56.524Z,17.90
2018-12-11T10:16:24.888Z,17.90
2018-12-11T10:18:53.249Z,18.00
2018-12-11T10:21:21.642Z,18.10
2018-12-11T10:23:49.999Z,18.10
2018-12-11T10:26:18.373Z,18.30
2018-12-11T10:28:46.742Z,18.30
2018-12-11T10:31:15.110Z,18.40
2018-12-11T10:33:43.502Z,18.50
2018-12-11T10:36:11.847Z,18.50
2018-12-11T10:38:40.188Z,18.50
2018-12-11T10:41:08.562Z,18.50
2018-12-11T10:43:36.983Z,18.40
2018-12-11T10:46:05.515Z,18.40
2018-12-11T10:48:33.918Z,18.50
2018-12-11T10:51:02.346Z,18.50
2018-12-11T10:53:31.193Z,18.50
2018-12-11T10:55:59.593Z,18.60
2018-12-11T10:58:27.969Z,18.70
2018-12-11T11:01:02.764Z,18.80
2018-12-11T11:03:32.047Z,18.70
2018-12-11T11:06:00.423Z,18.70
2018-12-11T11:08:28.807Z,18.80
2018-12-11T11:10:57.192Z,18.80
2018-12-11T11:16:56.566Z,18.70
2018-12-11T11:19:24.951Z,18.60
2018-12-11T11:21:53.333Z,18.50
2018-12-11T11:24:21.720Z,18.40
2018-12-11T11:26:50.092Z,18.40
2018-12-11T11:29:18.483Z,18.30
2018-12-11T11:31:46.883Z,18.20
2018-12-11T11:34:15.276Z,18.20
2018-12-11T11:36:43.652Z,18.20
2018-12-11T11:39:12.034Z,18.10
2018-12-11T11:41:40.407Z,18.10
2018-12-11T11:44:08.824Z,18.10
2018-12-11T11:46:37.264Z,18.10
2018-12-11T11:49:05.669Z,18.10
2018-12-11T11:51:34.082Z,18.20
2018-12-11T11:54:02.474Z,18.20
2018-12-11T11:56:30.849Z,18.20
2018-12-11T11:58:59.268Z,18.10
2018-12-11T12:01:27.669Z,18.10
2018-12-11T12:03:56.059Z,18.00
2018-12-11T12:06:24.471Z,18.00
2018-12-11T12:08:59.178Z,17.90
2018-12-11T12:11:23.267Z,17.90
2018-12-11T12:13:51.659Z,17.80
2018-12-11T12:16:20.038Z,17.80
2018-12-11T12:18:48.428Z,17.80
2018-12-11T12:21:16.815Z,17.80
2018-12-11T12:23:45.203Z,17.70
2018-12-11T12:26:13.580Z,17.70
2018-12-11T12:28:42.165Z,17.70
2018-12-11T12:31:10.767Z,17.70
2018-12-11T12:33:39.132Z,17.70
2018-12-11T12:36:07.506Z,17.70
2018-12-11T12:38:35.903Z,17.70
2018-12-11T12:41:04.268Z,17.70
2018-12-11T12:43:32.636Z,17.70
2018-12-11T12:46:01.019Z,17.70
2018-12-11T12:48:29.395Z,17.70
2018-12-11T12:50:57.772Z,17.70
2018-12-11T12:53:26.140Z,17.70
2018-12-11T12:55:54.550Z,17.70
2018-12-11T12:58:22.937Z,17.70
2018-12-11T13:00:51.796Z,17.60
2018-12-11T13:03:20.480Z,17.60
2018-12-11T13:05:48.859Z,17.60
2018-12-11T13:08:17.240Z,17.60
2018-12-11T13:10:45.627Z,17.60
2018-12-11T13:13:14.003Z,17.60
2018-12-11T13:15:42.402Z,17.60
2018-12-11T13:18:10.789Z,17.60
2018-12-11T13:20:39.179Z,17.60
2018-12-11T13:23:07.574Z,17.60
2018-12-11T13:25:35.944Z,17.60
2018-12-11T13:28:04.328Z,17.60
2018-12-11T13:30:32.692Z,17.60
2018-12-11T13:33:01.086Z,17.60
2018-12-11T13:35:29.453Z,17.60
2018-12-11T13:37:57.827Z,17.60
2018-12-11T13:40:26.447Z,17.60
2018-12-11T13:42:55.032Z,17.60
2018-12-11T13:45:23.422Z,17.50
2018-12-11T13:47:51.789Z,17.60
2018-12-11T13:50:20.304Z,17.50
2018-12-11T13:52:48.690Z,17.50
2018-12-11T13:55:17.076Z,17.60
2018-12-11T13:57:45.474Z,17.60
2018-12-11T14:00:14.026Z,17.60
2018-12-11T14:02:42.994Z,17.60
2018-12-11T14:05:11.375Z,17.60
2018-12-11T14:07:39.770Z,17.60
2018-12-11T14:10:08.170Z,17.60
2018-12-11T14:12:36.561Z,17.50
2018-12-11T14:15:06.159Z,17.50
2018-12-11T14:17:34.560Z,17.50
2018-12-11T14:20:02.954Z,17.50
2018-12-11T14:22:31.341Z,17.50
2018-12-11T14:25:00.072Z,17.50
2018-12-11T14:27:28.450Z,17.50
2018-12-11T14:29:56.830Z,17.40
2018-12-11T14:32:25.391Z,17.40
2018-12-11T14:34:53.791Z,17.40
2018-12-11T14:37:22.586Z,17.30
2018-12-11T14:39:50.989Z,17.40
2018-12-11T14:42:19.353Z,17.30
2018-12-11T14:44:47.753Z,17.30
2018-12-11T14:47:16.614Z,17.30
2018-12-11T14:49:44.998Z,17.30
2018-12-11T14:52:13.387Z,17.30
2018-12-11T14:54:41.771Z,17.30
2018-12-11T14:57:10.140Z,17.30
2018-12-11T14:59:38.536Z,17.30
2018-12-11T15:02:06.918Z,17.30
2018-12-11T15:04:35.300Z,17.20
2018-12-11T15:07:03.699Z,17.20
2018-12-11T15:09:37.490Z,17.20
2018-12-11T15:12:05.876Z,17.20
2018-12-11T15:14:34.270Z,17.20
2018-12-11T15:17:02.631Z,17.20
2018-12-11T15:19:31.011Z,17.20
2018-12-11T15:21:59.386Z,17.20
2018-12-11T15:24:27.766Z,17.20
2018-12-11T15:26:56.167Z,17.10
2018-12-11T15:29:24.543Z,17.10
2018-12-11T15:31:52.965Z,17.10
2018-12-11T15:34:21.348Z,17.10
2018-12-11T15:36:49.731Z,17.10
2018-12-11T15:39:18.114Z,17.10
2018-12-11T15:41:46.495Z,17.10
2018-12-11T15:44:14.884Z,17.00
2018-12-11T15:46:43.455Z,17.00
2018-12-11T15:49:11.856Z,17.00
2018-12-11T15:51:40.248Z,17.00
2018-12-11T15:54:08.828Z,17.00
2018-12-11T15:56:37.202Z,17.00
2018-12-11T15:59:05.571Z,17.00
2018-12-11T16:01:33.957Z,16.90
2018-12-11T16:04:02.335Z,16.90
2018-12-11T16:06:30.919Z,16.90
2018-12-11T16:08:59.320Z,16.90
2018-12-11T16:11:27.723Z,16.90
2018-12-11T16:13:56.120Z,16.90
2018-12-11T16:16:24.486Z,16.90
2018-12-11T16:18:52.866Z,16.90
2018-12-11T16:21:21.243Z,17.00
2018-12-11T16:23:49.637Z,17.00
2018-12-11T16:26:18.018Z,17.00
2018-12-11T16:28:46.431Z,17.10
2018-12-11T16:31:14.812Z,17.20
2018-12-11T16:33:43.211Z,17.20
2018-12-11T16:36:11.571Z,17.30
2018-12-11T16:38:39.949Z,17.40
2018-12-11T16:41:08.354Z,17.50
2018-12-11T16:43:36.723Z,17.50
2018-12-11T16:46:05.096Z,17.60
2018-12-11T16:48:33.491Z,17.70
2018-12-11T16:51:01.875Z,17.80
2018-12-11T16:53:30.249Z,17.80
2018-12-11T16:55:58.630Z,17.90
2018-12-11T16:58:27.048Z,18.00
2018-12-11T17:00:55.450Z,18.00
2018-12-11T17:03:23.850Z,18.10
2018-12-11T17:05:52.248Z,18.20
2018-12-11T17:08:20.655Z,18.20
2018-12-11T17:10:49.031Z,18.30
2018-12-11T17:13:17.408Z,18.30
2018-12-11T17:15:46.135Z,18.40
2018-12-11T17:18:15.365Z,18.50
2018-12-11T17:20:44.055Z,18.50
2018-12-11T17:23:12.448Z,18.60
2018-12-11T17:25:40.829Z,18.70
2018-12-11T17:28:09.250Z,18.80
2018-12-11T17:30:37.629Z,18.90
2018-12-11T17:33:06.009Z,19.00
2018-12-11T17:35:34.415Z,19.10
2018-12-11T17:38:02.823Z,19.20
2018-12-11T17:40:31.559Z,19.30
2018-12-11T17:43:01.592Z,19.50
2018-12-11T17:45:32.846Z,19.60
2018-12-11T17:48:01.267Z,19.70
2018-12-11T17:50:29.661Z,19.70
2018-12-11T17:52:58.106Z,19.80
2018-12-11T17:55:26.488Z,19.80
2018-12-11T17:57:54.952Z,19.90
2018-12-11T18:00:23.479Z,19.90
2018-12-11T18:02:52.015Z,19.90
2018-12-11T18:05:20.395Z,20.00
2018-12-11T18:07:48.813Z,20.00
2018-12-11T18:10:17.228Z,20.00
2018-12-11T18:12:45.616Z,20.10
2018-12-11T18:15:14.015Z,20.10
2018-12-11T18:17:42.414Z,20.10
2018-12-11T18:20:10.812Z,20.20
2018-12-11T18:22:39.189Z,20.20
2018-12-11T18:25:07.602Z,20.20
2018-12-11T18:27:35.999Z,20.20
2018-12-11T18:30:05.355Z,20.20
2018-12-11T18:32:33.731Z,20.30
2018-12-11T18:35:02.440Z,20.20
2018-12-11T18:37:30.898Z,20.20
2018-12-11T18:39:59.275Z,20.20
2018-12-11T18:42:27.676Z,20.20
2018-12-11T18:44:56.051Z,20.10
2018-12-11T18:47:25.845Z,20.10
2018-12-11T18:49:54.382Z,20.10
2018-12-11T18:52:22.724Z,20.10
2018-12-11T18:54:51.095Z,20.10
2018-12-11T18:57:20.117Z,20.10
2018-12-11T18:59:48.499Z,20.10
2018-12-11T19:02:16.866Z,20.10
2018-12-11T19:04:45.208Z,20.10
2018-12-11T19:07:13.604Z,20.10
2018-12-11T19:09:42.022Z,20.10
2018-12-11T19:12:10.384Z,20.10
2018-12-11T19:14:38.750Z,20.10
2018-12-11T19:17:07.103Z,20.10
2018-12-11T19:19:35.458Z,20.10
2018-12-11T19:22:03.954Z,20.10
2018-12-11T19:24:39.831Z,20.10
2018-12-11T19:27:08.194Z,20.10
2018-12-11T19:29:36.577Z,20.10
2018-12-11T19:32:04.936Z,20.10
2018-12-11T19:34:34.213Z,20.10
2018-12-11T19:37:02.610Z,20.10
2018-12-11T19:39:30.962Z,20.10
2018-12-11T19:41:59.319Z,20.10
2018-12-11T19:44:27.715Z,20.10
2018-12-11T19:46:56.086Z,20.10
2018-12-11T19:49:24.449Z,20.10
2018-12-11T19:51:52.829Z,20.10
2018-12-11T19:54:21.274Z,20.20
2018-12-11T19:56:49.661Z,20.20
2018-12-11T19:59:18.033Z,20.20
2018-12-11T20:01:46.418Z,20.20
2018-12-11T20:04:15.195Z,20.20
2018-12-11T20:06:43.588Z,20.20
2018-12-11T20:09:11.947Z,20.30
2018-12-11T20:11:40.340Z,20.20
2018-12-11T20:14:08.726Z,20.20
2018-12-11T20:16:37.100Z,20.20
2018-12-11T20:19:05.467Z,20.20
2018-12-11T20:21:33.859Z,20.20
2018-12-11T20:24:04.984Z,20.30
2018-12-11T20:26:39.022Z,20.20
2018-12-11T20:29:03.037Z,20.20
2018-12-11T20:31:31.431Z,20.20
2018-12-11T20:33:59.818Z,20.20
2018-12-11T20:36:28.190Z,20.20
2018-12-11T20:38:56.581Z,20.20
2018-12-11T20:41:24.944Z,20.20
2018-12-11T20:43:53.295Z,20.20
2018-12-11T20:46:21.669Z,20.30
2018-12-11T20:48:50.020Z,20.20
2018-12-11T20:51:18.402Z,20.20
2018-12-11T20:53:46.783Z,20.30
2018-12-11T20:56:15.144Z,20.30
2018-12-11T20:58:43.500Z,20.30
2018-12-11T21:01:11.864Z,20.30
2018-12-11T21:03:40.244Z,20.40
2018-12-11T21:06:08.601Z,20.40
2018-12-11T21:08:37.169Z,20.40
2018-12-11T21:11:06.111Z,20.40
2018-12-11T21:13:34.486Z,20.40
2018-12-11T21:16:02.843Z,20.50
2018-12-11T21:18:31.206Z,20.50
2018-12-11T21:20:59.574Z,20.50
2018-12-11T21:23:27.951Z,20.50
2018-12-11T21:25:57.103Z,20.50
2018-12-11T21:28:25.575Z,20.50
2018-12-11T21:30:53.933Z,20.60
2018-12-11T21:33:22.301Z,20.60
2018-12-11T21:35:50.784Z,20.60
2018-12-11T21:38:19.147Z,20.60
2018-12-11T21:40:47.526Z,20.70
2018-12-11T21:43:15.901Z,20.70
2018-12-11T21:45:46.571Z,20.70
2018-12-11T21:48:14.927Z,20.70
2018-12-11T21:50:43.287Z,20.70
2018-12-11T21:53:11.641Z,20.80
2018-12-11T21:55:39.995Z,20.80
2018-12-11T21:58:08.366Z,20.70
2018-12-11T22:00:37.034Z,20.80
2018-12-11T22:03:05.421Z,20.80
2018-12-11T22:05:36.019Z,20.80
2018-12-11T22:08:04.708Z,20.80
2018-12-11T22:10:33.154Z,20.90
2018-12-11T22:13:01.508Z,20.90
2018-12-11T22:15:29.911Z,21.00
2018-12-11T22:17:58.251Z,21.00
2018-12-11T22:20:26.630Z,21.10
2018-12-11T22:22:55.119Z,21.00
2018-12-11T22:25:23.481Z,21.00
2018-12-11T22:27:51.831Z,21.00
2018-12-11T22:30:20.899Z,20.90
2018-12-11T22:32:51.096Z,20.90
2018-12-11T22:35:19.557Z,20.80
2018-12-11T22:37:49.576Z,20.80
2018-12-11T22:40:17.964Z,20.70
2018-12-11T22:42:46.326Z,20.70
2018-12-11T22:45:14.969Z,20.60
2018-12-11T22:47:43.337Z,20.50
2018-12-11T22:50:13.291Z,20.50
2018-12-11T22:52:41.686Z,20.40
2018-12-11T22:55:10.083Z,20.40
2018-12-11T22:57:38.439Z,20.30
2018-12-11T23:00:07.259Z,20.20
2018-12-11T23:02:35.608Z,20.20
2018-12-11T23:05:03.998Z,20.10
2018-12-11T23:07:32.382Z,20.10
2018-12-11T23:10:02.390Z,20.00
2018-12-11T23:12:30.760Z,20.00
2018-12-11T23:14:59.151Z,19.90
2018-12-11T23:17:27.495Z,19.80
2018-12-11T23:19:55.841Z,19.80
2018-12-11T23:22:24.200Z,19.80
2018-12-11T23:24:52.988Z,19.70
2018-12-11T23:27:21.335Z,19.70
2018-12-11T23:29:49.707Z,19.60
2018-12-11T23:32:18.086Z,19.60
2018-12-11T23:34:46.425Z,19.50
2018-12-11T23:37:14.786Z,19.50
2018-12-11T23:39:43.149Z,19.50
2018-12-11T23:42:11.504Z,19.50
2018-12-11T23:44:39.882Z,19.40
2018-12-11T23:47:08.239Z,19.40
2018-12-11T23:49:36.598Z,19.30
2018-12-11T23:52:04.975Z,19.30
2018-12-11T23:54:33.332Z,19.30
2018-12-11T23:57:01.698Z,19.20
2018-12-11T23:59:30.040Z,19.20
